Terminal Aerodrome Forecast
Issued by NWS Jackson, MS

Home | Current Version | Previous Version | Text Only | Print | Product List | Glossary On
Versions: 1 2 3 4 5 6 7 8 9 10 11 12
000
FTUS44 KMEG 280522
TAFTUP
TAF
KTUP 280522Z 2806/2906 04003KT P6SM SKC
     FM281600 15006KT P6SM SCT050
     FM290100 10003KT P6SM FEW050=

USA.gov is the U.S. government's official web portal to all federal, state and local government web resources and services.